Flight Briefing for CPX665

Departure Arrival
Savannah/Hilton Head International Airport (KSAV)
Click to view FAA NOTAMS
Miami International Airport (KMIA)
Click to view FAA NOTAMS
Departure Time Arrival Time
N/A N/A
Aircraft Distance
SF340AF 382nm
Departure METAR Arrival METAR
KSAV 260853Z AUTO 26004KT 10SM CLR 13/12 A2995 RMK AO2 SLP140 60000 T01280122 56010 $ KMIA 260853Z 27004KT 10SM FEW022 21/18 A3000 RMK AO2 SLP160 T02110178 56012
Suggested Route
KELER V437 OMN V3 FLL


View recent IFR Routes data
Notes



Charts and Procedures

Charts for KSAV
No chart available
Charts for KMIA
No chart available

Windy.com Weather Map